Time;durP1;ratioP1;P1;durP2;ratioP2;P2;SDS_P1;SDS_P2;PMS_P1;PMS_P2;Temp;Humidity;BMP_temperature;BMP_pressure;BME280_temperature;BME280_humidity;BME280_pressure;Samples;Min_cycle;Max_cycle;Signal;HPM_P1;HPM_P2
2022/11/14 00:01:57;;;;;;;24.03;16.03;;;;;;;;;;5119462;28;20936;-70
2022/11/14 00:04:29;;;;;;;28.90;17.30;;;;;;;;;;5096566;28;20457;-69
2022/11/14 00:06:56;;;;;;;34.30;16.40;;;;;;;;;;5097410;28;20487;-70
2022/11/14 00:09:26;;;;;;;28.60;16.33;;;;;;;;;;5093579;28;20859;-70
2022/11/14 00:11:55;;;;;;;31.60;16.30;;;;;;;;;;5094324;28;20452;-70
2022/11/14 00:14:40;;;;;;;;;;;;;;;;;;;;;
2022/11/14 00:17:13;;;;;;;33.77;17.97;;;;;;;;;;5077722;28;20444;-69
2022/11/14 00:19:53;;;;;;;32.23;16.63;;;;;;;;;;5078271;28;20449;-69
2022/11/14 00:22:23;;;;;;;22.40;15.13;;;;;;;;;;5078666;28;20864;-69
2022/11/14 00:25:01;;;;;;;29.70;14.93;;;;;;;;;;5098259;28;20731;-70
2022/11/14 00:27:31;;;;;;;36.40;18.07;;;;;;;;;;5090937;28;20570;-70
2022/11/14 00:29:59;;;;;;;28.80;16.63;;;;;;;;;;5092724;28;20456;-69
2022/11/14 00:32:27;;;;;;;33.33;19.00;;;;;;;;;;5088693;28;20474;-69
2022/11/14 00:34:56;;;;;;;27.63;16.77;;;;;;;;;;5078734;28;20887;-69
2022/11/14 00:37:23;;;;;;;32.40;16.87;;;;;;;;;;5078742;28;20445;-70
2022/11/14 00:39:54;;;;;;;31.07;15.80;;;;;;;;;;5078120;28;20479;-69
2022/11/14 00:42:22;;;;;;;25.63;15.00;;;;;;;;;;5084790;28;20566;-69
2022/11/14 00:44:50;;;;;;;25.33;14.83;;;;;;;;;;5098624;28;20451;-70
2022/11/14 00:47:17;;;;;;;29.37;16.50;;;;;;;;;;5098456;28;20723;-70
2022/11/14 00:49:45;;;;;;;34.23;19.60;;;;;;;;;;5098555;28;20845;-70
2022/11/14 00:52:14;;;;;;;24.90;15.83;;;;;;;;;;5097922;28;20898;-69
2022/11/14 00:54:42;;;;;;;28.90;16.67;;;;;;;;;;5097827;28;20520;-70
2022/11/14 00:57:10;;;;;;;29.83;17.40;;;;;;;;;;5097124;28;20451;-69
2022/11/14 00:59:38;;;;;;;32.90;16.47;;;;;;;;;;5077978;28;20483;-69
2022/11/14 01:02:06;;;;;;;27.30;16.10;;;;;;;;;;5077590;28;20461;-69
2022/11/14 01:04:33;;;;;;;27.23;16.30;;;;;;;;;;5077114;28;20449;-69
2022/11/14 01:07:01;;;;;;;28.43;16.70;;;;;;;;;;5078019;28;20511;-70
2022/11/14 01:09:31;;;;;;;35.80;18.97;;;;;;;;;;5077485;28;20522;-69
2022/11/14 01:12:02;;;;;;;32.10;16.97;;;;;;;;;;5078164;28;20855;-69
2022/11/14 01:14:32;;;;;;;28.17;15.47;;;;;;;;;;5083782;28;20580;-69
2022/11/14 01:17:00;;;;;;;30.47;15.50;;;;;;;;;;5093189;28;20444;-70
2022/11/14 01:19:28;;;;;;;31.63;17.70;;;;;;;;;;5098218;28;20474;-70
2022/11/14 01:21:55;;;;;;;33.23;17.70;;;;;;;;;;5098161;28;20451;-69
2022/11/14 01:24:23;;;;;;;31.60;17.40;;;;;;;;;;5084373;28;20456;-70
2022/11/14 01:26:52;;;;;;;38.10;17.30;;;;;;;;;;5077232;28;20561;-69
2022/11/14 01:29:20;;;;;;;25.03;15.97;;;;;;;;;;5077600;28;20486;-70
2022/11/14 01:31:47;;;;;;;31.80;17.10;;;;;;;;;;5077647;28;20457;-69
2022/11/14 01:34:15;;;;;;;29.13;15.23;;;;;;;;;;5081612;28;20512;-70
2022/11/14 01:36:42;;;;;;;29.53;16.60;;;;;;;;;;5097109;28;20509;-70
2022/11/14 01:39:10;;;;;;;25.80;15.13;;;;;;;;;;5097332;28;20454;-69
2022/11/14 01:41:37;;;;;;;28.17;18.00;;;;;;;;;;5097224;28;20455;-70
2022/11/14 01:44:12;;;;;;;34.83;17.87;;;;;;;;;;5097157;28;21057;-70
2022/11/14 01:46:41;;;;;;;29.80;17.67;;;;;;;;;;5096972;28;20540;-69
2022/11/14 01:49:15;;;;;;;29.63;16.53;;;;;;;;;;5097685;28;20864;-70
2022/11/14 01:51:45;;;;;;;29.33;17.37;;;;;;;;;;5097533;28;20717;-70
2022/11/14 01:54:14;;;;;;;30.67;16.53;;;;;;;;;;5097022;28;20520;-69
2022/11/14 01:56:44;;;;;;;32.33;17.00;;;;;;;;;;5096878;28;20455;-70
2022/11/14 01:59:15;;;;;;;31.10;18.67;;;;;;;;;;5081352;28;20880;-69
2022/11/14 02:01:48;;;;;;;32.00;17.30;;;;;;;;;;5076970;28;20448;-70
2022/11/14 02:04:19;;;;;;;31.80;17.17;;;;;;;;;;5076562;28;20492;-70
2022/11/14 02:06:47;;;;;;;28.40;15.20;;;;;;;;;;5077186;28;20487;-69
2022/11/14 02:09:15;;;;;;;33.80;17.23;;;;;;;;;;5076036;28;20448;-70
2022/11/14 02:11:44;;;;;;;31.33;16.73;;;;;;;;;;5076667;28;20448;-69
2022/11/14 02:14:13;;;;;;;32.27;18.20;;;;;;;;;;5076978;28;20525;-70
2022/11/14 02:16:42;;;;;;;28.97;17.20;;;;;;;;;;5076911;28;20726;-69
2022/11/14 02:19:10;;;;;;;32.07;18.67;;;;;;;;;;5075844;28;20530;-69
2022/11/14 02:21:39;;;;;;;39.23;19.67;;;;;;;;;;5094138;28;20516;-70
2022/11/14 02:24:09;;;;;;;29.03;17.30;;;;;;;;;;5094709;28;20460;-70
2022/11/14 02:26:38;;;;;;;35.20;18.57;;;;;;;;;;5087516;28;20507;-70
2022/11/14 02:29:06;;;;;;;33.30;16.83;;;;;;;;;;5076258;28;20585;-70
2022/11/14 02:31:34;;;;;;;33.03;17.60;;;;;;;;;;5076463;28;20935;-70
2022/11/14 02:34:02;;;;;;;33.73;17.23;;;;;;;;;;5076182;28;20457;-70
2022/11/14 02:36:29;;;;;;;30.87;19.13;;;;;;;;;;5076281;28;20520;-70
2022/11/14 02:38:58;;;;;;;31.20;18.50;;;;;;;;;;5076562;28;20457;-70
2022/11/14 02:41:26;;;;;;;32.10;17.07;;;;;;;;;;5076208;28;20448;-70
2022/11/14 02:43:53;;;;;;;28.97;17.17;;;;;;;;;;5076251;28;20460;-70
2022/11/14 02:46:21;;;;;;;33.83;19.57;;;;;;;;;;5075991;28;20460;-70
2022/11/14 02:48:49;;;;;;;38.87;19.70;;;;;;;;;;5076072;28;20467;-70
2022/11/14 02:51:16;;;;;;;30.47;17.43;;;;;;;;;;5076652;28;20833;-70
2022/11/14 02:53:44;;;;;;;28.80;16.87;;;;;;;;;;5076115;28;20910;-70
2022/11/14 02:56:13;;;;;;;31.90;18.10;;;;;;;;;;5076002;28;20448;-70
2022/11/14 02:58:40;;;;;;;33.43;17.37;;;;;;;;;;5076016;28;20525;-70
2022/11/14 03:01:08;;;;;;;32.57;17.23;;;;;;;;;;5095675;28;20447;-70
2022/11/14 03:03:36;;;;;;;33.70;16.90;;;;;;;;;;5092940;28;20983;-70
2022/11/14 03:06:04;;;;;;;31.80;17.43;;;;;;;;;;5075164;28;20542;-70
2022/11/14 03:08:32;;;;;;;43.20;22.60;;;;;;;;;;5075716;28;20520;-70
2022/11/14 03:11:04;;;;;;;33.07;17.40;;;;;;;;;;5094051;28;20451;-69
2022/11/14 03:13:35;;;;;;;33.40;18.13;;;;;;;;;;5088629;28;20463;-70
2022/11/14 03:16:06;;;;;;;35.97;19.37;;;;;;;;;;5075658;28;20895;-70
2022/11/14 03:18:34;;;;;;;34.50;18.73;;;;;;;;;;5075714;28;20464;-70
2022/11/14 03:21:06;;;;;;;33.30;19.10;;;;;;;;;;5094673;28;20458;-70
2022/11/14 03:23:34;;;;;;;32.83;16.67;;;;;;;;;;5100385;28;20524;-70
2022/11/14 03:26:02;;;;;;;33.23;18.40;;;;;;;;;;5100117;28;20459;-70
2022/11/14 03:28:30;;;;;;;35.10;18.73;;;;;;;;;;5100201;28;20497;-70
2022/11/14 03:30:59;;;;;;;28.03;15.30;;;;;;;;;;5089032;28;20455;-70
2022/11/14 03:33:27;;;;;;;35.63;19.67;;;;;;;;;;5099783;28;20871;-71
2022/11/14 03:35:55;;;;;;;31.00;16.67;;;;;;;;;;5099826;28;20466;-70
2022/11/14 03:38:22;;;;;;;32.73;17.67;;;;;;;;;;5099764;28;20450;-69
2022/11/14 03:40:50;;;;;;;32.77;17.87;;;;;;;;;;5083287;28;20452;-69
2022/11/14 03:43:18;;;;;;;29.43;18.60;;;;;;;;;;5079513;28;20448;-70
2022/11/14 03:45:46;;;;;;;34.83;18.40;;;;;;;;;;5079414;28;20867;-71
2022/11/14 03:48:14;;;;;;;34.30;18.00;;;;;;;;;;5079591;28;20569;-71
2022/11/14 03:50:42;;;;;;;26.60;16.27;;;;;;;;;;5087965;28;20562;-70
2022/11/14 03:53:10;;;;;;;32.03;17.17;;;;;;;;;;5099465;28;20455;-71
2022/11/14 03:55:39;;;;;;;35.67;17.27;;;;;;;;;;5099572;28;20452;-70
2022/11/14 03:58:06;;;;;;;33.93;18.97;;;;;;;;;;5098689;28;20794;-70
2022/11/14 04:00:34;;;;;;;36.40;19.83;;;;;;;;;;5079708;28;20460;-70
2022/11/14 04:03:02;;;;;;;32.73;18.13;;;;;;;;;;5078967;28;20949;-70
2022/11/14 04:05:31;;;;;;;32.00;17.80;;;;;;;;;;5079102;28;20868;-70
2022/11/14 04:07:58;;;;;;;36.37;19.47;;;;;;;;;;5080044;28;21137;-70
2022/11/14 04:10:26;;;;;;;30.73;18.70;;;;;;;;;;5097580;28;20971;-70
2022/11/14 04:12:54;;;;;;;32.63;16.27;;;;;;;;;;5098812;28;20451;-70
2022/11/14 04:15:22;;;;;;;42.13;19.40;;;;;;;;;;5098776;28;20455;-70
2022/11/14 04:17:49;;;;;;;31.27;17.10;;;;;;;;;;5097616;28;20508;-70
2022/11/14 04:20:20;;;;;;;33.50;18.93;;;;;;;;;;5098362;28;20471;-70
2022/11/14 04:22:49;;;;;;;32.43;19.30;;;;;;;;;;5098755;28;20840;-70
2022/11/14 04:25:16;;;;;;;42.60;18.47;;;;;;;;;;5098413;28;20848;-70
2022/11/14 04:27:44;;;;;;;29.33;18.97;;;;;;;;;;5098219;28;20490;-70
2022/11/14 04:30:12;;;;;;;34.83;17.10;;;;;;;;;;5097199;28;20455;-70
2022/11/14 04:32:40;;;;;;;38.27;19.00;;;;;;;;;;5097959;28;20455;-69
2022/11/14 04:35:08;;;;;;;31.60;18.23;;;;;;;;;;5098671;28;20447;-69
2022/11/14 04:37:37;;;;;;;37.80;18.70;;;;;;;;;;5098045;28;20447;-69
2022/11/14 04:40:09;;;;;;;38.73;19.27;;;;;;;;;;5097765;28;20478;-70
2022/11/14 04:42:42;;;;;;;40.07;17.87;;;;;;;;;;5096404;28;20740;-70
2022/11/14 04:45:11;;;;;;;37.07;21.00;;;;;;;;;;5097967;28;20455;-69
2022/11/14 04:47:42;;;;;;;37.80;20.77;;;;;;;;;;5098111;28;20519;-69
2022/11/14 04:50:10;;;;;;;30.23;17.87;;;;;;;;;;5097734;28;20448;-70
2022/11/14 04:52:38;;;;;;;35.73;18.60;;;;;;;;;;5098183;28;20468;-70
2022/11/14 04:55:07;;;;;;;37.90;18.90;;;;;;;;;;5097691;28;20459;-70
2022/11/14 04:57:35;;;;;;;34.90;19.00;;;;;;;;;;5098154;28;20448;-70
2022/11/14 05:00:02;;;;;;;37.97;21.00;;;;;;;;;;5097881;28;20716;-70
2022/11/14 05:02:34;;;;;;;37.23;18.20;;;;;;;;;;5097868;28;20470;-70
2022/11/14 05:05:01;;;;;;;35.30;19.90;;;;;;;;;;5098349;28;20451;-70
2022/11/14 05:07:32;;;;;;;35.30;19.27;;;;;;;;;;5098268;28;20483;-70
2022/11/14 05:10:00;;;;;;;35.27;20.30;;;;;;;;;;5085867;28;20486;-69
2022/11/14 05:12:29;;;;;;;40.20;19.03;;;;;;;;;;5094042;28;20534;-69
2022/11/14 05:14:56;;;;;;;40.03;19.17;;;;;;;;;;5095057;28;20456;-69
2022/11/14 05:17:24;;;;;;;36.00;20.67;;;;;;;;;;5094614;28;20454;-70
2022/11/14 05:19:55;;;;;;;39.77;20.37;;;;;;;;;;5095634;28;21010;-69
2022/11/14 05:22:24;;;;;;;36.57;19.17;;;;;;;;;;5077060;28;20445;-70
2022/11/14 05:24:53;;;;;;;37.80;20.07;;;;;;;;;;5077241;28;20547;-70
2022/11/14 05:27:21;;;;;;;32.27;20.47;;;;;;;;;;5077164;28;20480;-70
2022/11/14 05:29:50;;;;;;;33.23;17.33;;;;;;;;;;5076977;28;20460;-70
2022/11/14 05:32:17;;;;;;;41.90;18.57;;;;;;;;;;5077265;28;20452;-69
2022/11/14 05:34:45;;;;;;;39.00;21.77;;;;;;;;;;5076073;28;20467;-69
2022/11/14 05:37:12;;;;;;;32.57;18.40;;;;;;;;;;5088576;28;20520;-70
2022/11/14 05:39:40;;;;;;;34.53;20.03;;;;;;;;;;5097446;28;20707;-69
2022/11/14 05:42:09;;;;;;;42.30;20.90;;;;;;;;;;5096864;28;20455;-70
2022/11/14 05:44:37;;;;;;;40.80;19.30;;;;;;;;;;5096290;28;20543;-70
2022/11/14 05:47:06;;;;;;;39.33;21.70;;;;;;;;;;5096553;28;20803;-70
2022/11/14 05:49:34;;;;;;;37.43;20.33;;;;;;;;;;5096595;28;20460;-70
2022/11/14 05:52:01;;;;;;;38.90;19.33;;;;;;;;;;5096649;28;20751;-69
2022/11/14 05:54:29;;;;;;;48.20;22.20;;;;;;;;;;5096380;28;20447;-70
2022/11/14 05:56:57;;;;;;;30.17;17.63;;;;;;;;;;5096106;28;20467;-70
2022/11/14 05:59:27;;;;;;;46.13;22.67;;;;;;;;;;5095724;28;20451;-70
2022/11/14 06:01:55;;;;;;;35.13;19.37;;;;;;;;;;5095511;28;20567;-70
2022/11/14 06:04:24;;;;;;;40.07;17.77;;;;;;;;;;5095290;28;20458;-71
2022/11/14 06:06:51;;;;;;;37.40;19.97;;;;;;;;;;5095399;28;20803;-71
2022/11/14 06:09:19;;;;;;;35.23;21.10;;;;;;;;;;5093868;28;20483;-70
2022/11/14 06:11:46;;;;;;;42.83;22.40;;;;;;;;;;5096045;28;20747;-71
2022/11/14 06:14:15;;;;;;;39.40;20.83;;;;;;;;;;5089739;28;20457;-69
2022/11/14 06:16:42;;;;;;;41.13;22.17;;;;;;;;;;5074813;28;20509;-70
2022/11/14 06:19:10;;;;;;;37.80;21.73;;;;;;;;;;5074551;28;20806;-70
2022/11/14 06:21:39;;;;;;;45.17;21.60;;;;;;;;;;5076539;28;20457;-70
2022/11/14 06:24:07;;;;;;;41.73;21.53;;;;;;;;;;5075878;28;20490;-71
2022/11/14 06:26:45;;;;;;;43.10;19.77;;;;;;;;;;5074541;28;20465;-70
2022/11/14 06:29:12;;;;;;;51.20;21.60;;;;;;;;;;5073645;28;20490;-71
2022/11/14 06:31:40;;;;;;;36.07;19.23;;;;;;;;;;5074173;28;20453;-70
2022/11/14 06:34:08;;;;;;;38.23;22.10;;;;;;;;;;5091568;28;20448;-70
2022/11/14 06:36:36;;;;;;;44.97;20.80;;;;;;;;;;5094076;28;20781;-70
2022/11/14 06:39:05;;;;;;;43.60;20.57;;;;;;;;;;5086209;28;20453;-70
2022/11/14 06:41:33;;;;;;;45.53;21.77;;;;;;;;;;5074358;28;20926;-71
2022/11/14 06:44:02;;;;;;;35.20;18.53;;;;;;;;;;5072551;28;20458;-71
2022/11/14 06:46:30;;;;;;;43.20;19.37;;;;;;;;;;5074718;28;20466;-71
2022/11/14 06:49:02;;;;;;;36.97;16.87;;;;;;;;;;5072321;28;20503;-70
2022/11/14 06:51:32;;;;;;;37.13;19.17;;;;;;;;;;5071927;28;20457;-71
2022/11/14 06:53:59;;;;;;;40.23;18.87;;;;;;;;;;5076087;28;20541;-69
2022/11/14 06:56:28;;;;;;;41.63;18.20;;;;;;;;;;5089557;28;20448;-70
2022/11/14 06:58:56;;;;;;;47.13;20.60;;;;;;;;;;5083861;28;20444;-70
2022/11/14 07:01:26;;;;;;;62.30;22.23;;;;;;;;;;5096676;28;20879;-71
2022/11/14 07:03:53;;;;;;;35.60;19.50;;;;;;;;;;5097704;28;20512;-70
2022/11/14 07:06:22;;;;;;;33.43;20.37;;;;;;;;;;5096215;28;20462;-70
2022/11/14 07:08:50;;;;;;;33.37;18.30;;;;;;;;;;5106536;28;20978;-69
2022/11/14 07:11:24;;;;;;;41.47;20.27;;;;;;;;;;5106217;28;20515;-73
2022/11/14 07:13:58;;;;;;;36.70;18.97;;;;;;;;;;5077906;28;20456;-69
2022/11/14 07:16:28;;;;;;;37.30;18.63;;;;;;;;;;5078429;28;20539;-70
2022/11/14 07:18:56;;;;;;;36.27;17.90;;;;;;;;;;5076966;28;20459;-70
2022/11/14 07:21:24;;;;;;;36.47;18.60;;;;;;;;;;5086614;28;20474;-70
2022/11/14 07:23:52;;;;;;;34.13;20.00;;;;;;;;;;5098594;28;20539;-70
2022/11/14 07:26:20;;;;;;;38.30;20.77;;;;;;;;;;5097874;28;20547;-71
2022/11/14 07:28:48;;;;;;;46.37;22.70;;;;;;;;;;5098465;28;20825;-70
2022/11/14 07:31:20;;;;;;;36.70;20.00;;;;;;;;;;5095913;28;20455;-71
2022/11/14 07:33:51;;;;;;;37.80;20.87;;;;;;;;;;5098111;28;20861;-72
2022/11/14 07:36:36;;;;;;;35.90;17.67;;;;;;;;;;5097458;28;21919;-71
2022/11/14 07:39:05;;;;;;;44.03;20.03;;;;;;;;;;5077741;28;20502;-73
2022/11/14 07:41:33;;;;;;;33.80;19.30;;;;;;;;;;5077189;28;20457;-72
2022/11/14 07:44:06;;;;;;;45.70;21.47;;;;;;;;;;5080856;28;20440;-72
2022/11/14 07:46:39;;;;;;;41.03;19.70;;;;;;;;;;5078478;28;20471;-73
2022/11/14 07:49:07;;;;;;;40.60;19.80;;;;;;;;;;5077142;28;20510;-70
2022/11/14 07:51:38;;;;;;;33.60;19.23;;;;;;;;;;5082473;28;20475;-71
2022/11/14 07:54:12;;;;;;;33.87;18.67;;;;;;;;;;5077365;28;20479;-71
2022/11/14 07:56:42;;;;;;;36.77;19.87;;;;;;;;;;5095391;28;20454;-70
2022/11/14 07:59:11;;;;;;;40.30;19.73;;;;;;;;;;5078477;28;20453;-70
2022/11/14 08:01:40;;;;;;;47.80;19.60;;;;;;;;;;5077350;28;20460;-70
2022/11/14 08:04:12;;;;;;;37.10;19.73;;;;;;;;;;5079300;28;20444;-69
2022/11/14 08:06:42;;;;;;;41.40;19.10;;;;;;;;;;5077149;28;20461;-69
2022/11/14 08:09:09;;;;;;;41.53;19.60;;;;;;;;;;5077276;28;20488;-70
2022/11/14 08:11:50;;;;;;;36.07;17.33;;;;;;;;;;5077218;28;20472;-70
2022/11/14 08:14:18;;;;;;;36.00;19.30;;;;;;;;;;5076693;28;20448;-70
2022/11/14 08:16:48;;;;;;;37.73;19.37;;;;;;;;;;5077096;28;20748;-70
2022/11/14 08:19:18;;;;;;;36.67;20.67;;;;;;;;;;5075315;28;20466;-70
2022/11/14 08:21:46;;;;;;;37.73;19.67;;;;;;;;;;5077797;28;20475;-70
2022/11/14 08:24:14;;;;;;;36.10;18.40;;;;;;;;;;5077044;28;20525;-70
2022/11/14 08:29:43;;;;;;;36.17;17.70;;;;;;;;;;5089077;28;20475;-69
2022/11/14 08:32:16;;;;;;;33.07;17.90;;;;;;;;;;5081508;28;20472;-69
2022/11/14 08:34:43;;;;;;;37.20;19.40;;;;;;;;;;5078740;28;20529;-69
2022/11/14 08:37:13;;;;;;;41.67;19.60;;;;;;;;;;5088587;28;20452;-70
2022/11/14 08:39:43;;;;;;;34.03;17.70;;;;;;;;;;5084495;28;20453;-70
2022/11/14 08:42:13;;;;;;;37.40;19.07;;;;;;;;;;5087700;28;20451;-70
2022/11/14 08:47:30;;;;;;;38.60;19.43;;;;;;;;;;5083248;28;20435;-70
2022/11/14 08:49:59;;;;;;;35.23;18.17;;;;;;;;;;5075471;28;20480;-71
2022/11/14 08:52:30;;;;;;;40.27;19.50;;;;;;;;;;5076930;28;20460;-70
2022/11/14 08:55:17;;;;;;;34.03;18.97;;;;;;;;;;5084844;28;20869;-70
2022/11/14 08:57:57;;;;;;;40.07;19.00;;;;;;;;;;5096698;28;20460;-70
2022/11/14 09:00:41;;;;;;;32.63;18.60;;;;;;;;;;5096752;28;20483;-70
2022/11/14 09:03:12;;;;;;;36.00;19.80;;;;;;;;;;5097326;28;20448;-71
2022/11/14 09:05:40;;;;;;;27.83;17.17;;;;;;;;;;5097867;28;20462;-70
2022/11/14 09:11:04;;;;;;;;;;;;;;;;;;;;;
2022/11/14 09:14:01;;;;;;;37.30;20.30;;;;;;;;;;5092652;28;20447;-70
2022/11/14 09:16:34;;;;;;;27.87;15.13;;;;;;;;;;5076383;28;20458;-70
2022/11/14 09:19:10;;;;;;;31.40;16.70;;;;;;;;;;5076509;28;20492;-69
2022/11/14 09:21:38;;;;;;;35.90;17.77;;;;;;;;;;5093672;28;20455;-69
2022/11/14 09:24:19;;;;;;;36.60;20.37;;;;;;;;;;5080363;28;20460;-70
2022/11/14 09:26:58;;;;;;;31.77;17.30;;;;;;;;;;5091714;28;20527;-70
2022/11/14 09:32:08;;;;;;;29.20;16.17;;;;;;;;;;5076086;28;20570;-69
2022/11/14 09:34:41;;;;;;;33.27;21.10;;;;;;;;;;5081649;28;20453;-70
2022/11/14 09:37:09;;;;;;;35.90;16.90;;;;;;;;;;5094898;28;20886;-70
2022/11/14 09:39:45;;;;;;;32.13;16.17;;;;;;;;;;5081784;28;20462;-70
2022/11/14 09:42:25;;;;;;;34.40;19.23;;;;;;;;;;5093525;28;20455;-70
2022/11/14 09:44:58;;;;;;;32.00;17.07;;;;;;;;;;5088645;28;20468;-70
2022/11/14 09:47:28;;;;;;;29.57;17.20;;;;;;;;;;5076144;28;20448;-70
2022/11/14 09:50:00;;;;;;;31.30;18.17;;;;;;;;;;5075186;28;20597;-70
2022/11/14 09:52:30;;;;;;;37.43;17.80;;;;;;;;;;5076594;28;20888;-71
2022/11/14 09:54:59;;;;;;;35.97;19.67;;;;;;;;;;5092269;28;20554;-70
2022/11/14 09:57:27;;;;;;;28.63;15.83;;;;;;;;;;5078495;28;20576;-69
2022/11/14 09:59:56;;;;;;;31.03;17.70;;;;;;;;;;5075944;28;20876;-69
2022/11/14 10:02:40;;;;;;;32.40;18.30;;;;;;;;;;5075220;28;20460;-69
2022/11/14 10:05:31;;;;;;;30.00;17.97;;;;;;;;;;5095239;28;20581;-69
2022/11/14 10:08:12;;;;;;;37.07;17.57;;;;;;;;;;5078472;28;20530;-69
2022/11/14 10:10:49;;;;;;;36.50;17.53;;;;;;;;;;5090464;28;20479;-69
2022/11/14 10:13:27;;;;;;;28.23;16.67;;;;;;;;;;5089110;28;20466;-68
2022/11/14 10:16:02;;;;;;;33.33;18.90;;;;;;;;;;5081264;28;20461;-69
2022/11/14 10:18:45;;;;;;;31.50;17.27;;;;;;;;;;5072674;28;20452;-69
2022/11/14 10:21:26;;;;;;;28.83;14.80;;;;;;;;;;5075412;28;20452;-69
2022/11/14 10:23:59;;;;;;;31.33;17.70;;;;;;;;;;5090441;28;20452;-70
2022/11/14 10:26:30;;;;;;;26.50;15.97;;;;;;;;;;5091947;28;20456;-70
2022/11/14 10:29:07;;;;;;;37.43;15.67;;;;;;;;;;5089924;28;20575;-70
2022/11/14 10:31:43;;;;;;;32.53;20.30;;;;;;;;;;5091239;28;20471;-72
2022/11/14 10:34:14;;;;;;;29.30;17.77;;;;;;;;;;5093595;28;20473;-71
2022/11/14 10:36:46;;;;;;;36.70;18.77;;;;;;;;;;5089310;28;20471;-70
2022/11/14 10:39:27;;;;;;;34.87;16.40;;;;;;;;;;5083085;28;20456;-71
2022/11/14 10:41:57;;;;;;;27.50;16.30;;;;;;;;;;5087561;28;20543;-70
2022/11/14 10:44:27;;;;;;;26.73;17.00;;;;;;;;;;5090351;28;20460;-70
2022/11/14 10:46:57;;;;;;;34.07;16.47;;;;;;;;;;5080254;28;20818;-70
2022/11/14 10:49:26;;;;;;;30.70;17.13;;;;;;;;;;5078383;28;20926;-70
2022/11/14 10:51:59;;;;;;;30.10;16.27;;;;;;;;;;5073122;28;20533;-72
2022/11/14 10:54:37;;;;;;;36.73;18.80;;;;;;;;;;5082009;28;20494;-71
2022/11/14 10:57:04;;;;;;;32.33;16.10;;;;;;;;;;5093475;28;20541;-69
2022/11/14 10:59:39;;;;;;;32.63;16.63;;;;;;;;;;5077832;28;20451;-69
2022/11/14 11:02:12;;;;;;;29.23;16.47;;;;;;;;;;5082000;28;21047;-71
2022/11/14 11:04:48;;;;;;;31.07;17.73;;;;;;;;;;5084153;28;20460;-70
2022/11/14 11:13:29;;;;;;;29.10;17.73;;;;;;;;;;5079812;28;20454;-70
2022/11/14 11:16:08;;;;;;;29.87;16.03;;;;;;;;;;5088300;28;20524;-69
2022/11/14 11:18:40;;;;;;;30.63;16.40;;;;;;;;;;5088797;28;20948;-69
2022/11/14 11:21:21;;;;;;;28.50;15.47;;;;;;;;;;5093779;28;20444;-69
2022/11/14 11:24:17;;;;;;;26.17;16.10;;;;;;;;;;5089619;28;20455;-70
2022/11/14 11:26:48;;;;;;;32.90;17.00;;;;;;;;;;5079947;28;20598;-69
2022/11/14 11:35:34;;;;;;;20.63;14.57;;;;;;;;;;5082771;28;20475;-70
2022/11/14 11:38:23;;;;;;;;;;;;;;;;;;;;;
2022/11/14 11:41:06;;;;;;;28.57;16.30;;;;;;;;;;5082826;28;20464;-70
2022/11/14 11:43:42;;;;;;;28.80;16.93;;;;;;;;;;5084903;28;20449;-71
2022/11/14 11:46:22;;;;;;;35.83;16.83;;;;;;;;;;5092316;28;20462;-69
2022/11/14 11:51:44;;;;;;;26.10;16.47;;;;;;;;;;5095337;28;20966;-70
2022/11/14 11:57:26;;;;;;;;;;;;;;;;;;;;;
2022/11/14 12:00:21;;;;;;;23.23;15.53;;;;;;;;;;5075786;28;20437;-71
2022/11/14 12:03:11;;;;;;;;;;;;;;;;;;;;;
2022/11/14 12:05:58;;;;;;;26.03;15.27;;;;;;;;;;5071377;28;20441;-71
2022/11/14 12:08:30;;;;;;;24.67;17.37;;;;;;;;;;5078477;28;20463;-68
2022/11/14 12:10:59;;;;;;;28.77;16.50;;;;;;;;;;5077798;28;20491;-69
2022/11/14 12:19:53;;;;;;;24.50;13.47;;;;;;;;;;5068392;28;20468;-68
2022/11/14 12:22:45;;;;;;;25.07;15.90;;;;;;;;;;5082230;28;20500;-69
2022/11/14 12:25:45;;;;;;;24.27;16.13;;;;;;;;;;5078120;28;20460;-73
2022/11/14 12:28:45;;;;;;;30.90;15.50;;;;;;;;;;4998493;28;20463;-70
2022/11/14 12:31:17;;;;;;;32.30;15.60;;;;;;;;;;5086749;28;20522;-71
2022/11/14 12:34:01;;;;;;;24.33;14.47;;;;;;;;;;5082940;28;20447;-72
2022/11/14 12:36:34;;;;;;;26.67;15.40;;;;;;;;;;5079141;28;20456;-70
2022/11/14 12:39:20;;;;;;;26.67;13.93;;;;;;;;;;5075736;28;20882;-72
2022/11/14 12:42:05;;;;;;;32.37;14.90;;;;;;;;;;5079659;28;20765;-71
2022/11/14 12:50:53;;;;;;;23.33;15.03;;;;;;;;;;5076981;28;20472;-74
2022/11/14 12:57:00;;;;;;;26.23;15.53;;;;;;;;;;5057730;28;20464;-73
2022/11/14 12:59:40;;;;;;;22.90;13.33;;;;;;;;;;5077142;28;20959;-74
2022/11/14 13:02:27;;;;;;;22.03;14.83;;;;;;;;;;5078153;28;20439;-72
2022/11/14 13:21:44;;;;;;;26.23;14.80;;;;;;;;;;5074193;28;20491;-72
2022/11/14 13:22:42;;;;;;;25.73;14.37;;;;;;;;;;5056637;28;20609;-72
2022/11/14 13:25:18;;;;;;;31.40;15.67;;;;;;;;;;5070914;28;20870;-71
2022/11/14 13:27:53;;;;;;;23.57;14.97;;;;;;;;;;5055783;28;20449;-71
2022/11/14 13:30:50;;;;;;;27.33;16.77;;;;;;;;;;5070153;28;20475;-71
2022/11/14 13:33:33;;;;;;;26.17;15.50;;;;;;;;;;5055593;28;20473;-70
2022/11/14 13:36:30;;;;;;;26.00;15.67;;;;;;;;;;5072335;28;20770;-72
2022/11/14 13:39:22;;;;;;;32.30;15.67;;;;;;;;;;5064834;28;20751;-70
2022/11/14 13:42:02;;;;;;;23.87;14.90;;;;;;;;;;5067292;28;20567;-71
2022/11/14 13:44:59;;;;;;;28.03;14.43;;;;;;;;;;5068404;28;20475;-70
2022/11/14 13:47:55;;;;;;;23.57;14.03;;;;;;;;;;5072734;28;20480;-70
2022/11/14 13:50:35;;;;;;;26.93;15.87;;;;;;;;;;5053273;28;20493;-70
2022/11/14 13:53:03;;;;;;;19.03;11.80;;;;;;;;;;5070869;28;20463;-71
2022/11/14 13:55:37;;;;;;;22.27;13.97;;;;;;;;;;5068651;28;20480;-70
2022/11/14 13:58:09;;;;;;;29.10;16.53;;;;;;;;;;5074462;28;20570;-69
2022/11/14 14:00:56;;;;;;;24.30;14.70;;;;;;;;;;5067068;28;20457;-71
2022/11/14 14:03:29;;;;;;;24.10;13.43;;;;;;;;;;5053625;28;20476;-69
2022/11/14 14:06:06;;;;;;;24.67;12.77;;;;;;;;;;5054508;28;20453;-69
2022/11/14 14:08:41;;;;;;;26.33;14.40;;;;;;;;;;5053807;28;20437;-69
2022/11/14 14:11:22;;;;;;;28.30;16.97;;;;;;;;;;5055453;28;21038;-69
2022/11/14 14:13:54;;;;;;;28.93;15.27;;;;;;;;;;5054733;28;20813;-69
2022/11/14 14:16:30;;;;;;;24.43;15.30;;;;;;;;;;5069132;28;20846;-68
2022/11/14 14:19:03;;;;;;;23.43;14.93;;;;;;;;;;5062058;28;20461;-68
2022/11/14 14:21:40;;;;;;;28.27;14.90;;;;;;;;;;5053713;28;20515;-68
2022/11/14 14:24:21;;;;;;;33.37;13.63;;;;;;;;;;5065563;28;20464;-68
2022/11/14 14:26:56;;;;;;;37.10;15.67;;;;;;;;;;5064138;28;20495;-68
2022/11/14 14:29:25;;;;;;;23.70;14.63;;;;;;;;;;5073489;28;20920;-68
2022/11/14 14:31:53;;;;;;;28.53;15.17;;;;;;;;;;5072087;28;20599;-68
2022/11/14 14:34:30;;;;;;;21.60;13.40;;;;;;;;;;5071556;28;20545;-68
2022/11/14 14:36:59;;;;;;;24.30;13.23;;;;;;;;;;5057802;28;20503;-68
2022/11/14 14:39:28;;;;;;;26.40;14.10;;;;;;;;;;5052466;28;20445;-68
2022/11/14 14:41:56;;;;;;;26.10;14.10;;;;;;;;;;5056872;28;20874;-68
2022/11/14 14:44:27;;;;;;;30.87;17.03;;;;;;;;;;5054019;28;20457;-68
2022/11/14 14:46:55;;;;;;;23.20;15.07;;;;;;;;;;5053569;28;20470;-68
2022/11/14 14:49:25;;;;;;;24.87;14.10;;;;;;;;;;5053730;28;20457;-67
2022/11/14 14:51:53;;;;;;;24.60;13.87;;;;;;;;;;5063913;28;20958;-67
2022/11/14 14:54:24;;;;;;;25.03;15.00;;;;;;;;;;5074760;28;20452;-67
2022/11/14 14:56:58;;;;;;;29.20;15.37;;;;;;;;;;5070577;28;21279;-69
2022/11/14 14:59:36;;;;;;;29.13;15.17;;;;;;;;;;5068135;28;20451;-68
2022/11/14 15:02:04;;;;;;;23.00;12.30;;;;;;;;;;5068717;28;20476;-68
2022/11/14 15:04:32;;;;;;;25.17;14.20;;;;;;;;;;5081864;28;20448;-67
2022/11/14 15:07:03;;;;;;;25.00;13.37;;;;;;;;;;5069838;28;20453;-69
2022/11/14 15:09:50;;;;;;;23.80;14.00;;;;;;;;;;5065934;28;20555;-67
2022/11/14 15:12:18;;;;;;;20.97;14.10;;;;;;;;;;5051759;28;20538;-68
2022/11/14 15:14:46;;;;;;;24.30;14.30;;;;;;;;;;5062173;28;20891;-67
2022/11/14 15:17:14;;;;;;;23.20;15.07;;;;;;;;;;5077049;28;20512;-67
2022/11/14 15:19:43;;;;;;;32.80;20.47;;;;;;;;;;5060223;28;20456;-67
2022/11/14 15:22:24;;;;;;;27.70;13.90;;;;;;;;;;5070397;28;20914;-67
2022/11/14 15:25:22;;;;;;;27.00;15.10;;;;;;;;;;5062430;28;20556;-67
2022/11/14 15:27:55;;;;;;;23.27;14.60;;;;;;;;;;4996229;28;20454;-67
2022/11/14 15:30:24;;;;;;;24.07;13.50;;;;;;;;;;5045046;28;21108;-68
2022/11/14 15:32:54;;;;;;;26.90;14.70;;;;;;;;;;5068176;28;20465;-68
2022/11/14 15:35:26;;;;;;;28.97;14.03;;;;;;;;;;5087493;28;20459;-68
2022/11/14 15:38:03;;;;;;;30.13;14.30;;;;;;;;;;5077906;28;20487;-68
2022/11/14 15:40:32;;;;;;;26.90;14.93;;;;;;;;;;5069865;28;20468;-68
2022/11/14 15:43:01;;;;;;;24.63;14.80;;;;;;;;;;5076778;28;20518;-68
2022/11/14 15:45:30;;;;;;;24.40;14.70;;;;;;;;;;5067647;28;20473;-66
2022/11/14 15:47:59;;;;;;;26.00;14.80;;;;;;;;;;5068673;28;20484;-68
2022/11/14 15:50:30;;;;;;;24.30;14.40;;;;;;;;;;5057776;28;20877;-68